Flight Track Log - Related Links

Times and Time Zones

All times are in EST time to prevent confusion due to time zone crossing. See the AAR8737 flight status page for this flight to view local times or setup timezone preferences in your user account.


Time Position Orientation Groundspeed Altitude Reporting Facility
EST Latitude Longitude Course Direction KTS MPH feet Rate Location/Type
Fri 03:58:00 AM 37.1395 126.9215 166° South  Level Estimated
Fri 03:59:00 AM 37.0348 126.9541 166° South  Level Estimated
Fri 04:00:00 AM 36.9301 126.9865 166° South  Level Estimated
Fri 04:01:00 AM 36.8254 127.0188 166° South  Level Estimated
Fri 04:02:00 AM 36.7206 127.0511 166° South  Level Estimated
Fri 04:03:00 AM 36.6159 127.0832 166° South  Level Estimated
Fri 04:04:00 AM 36.5111 127.1153 166° South  Level Estimated
Fri 04:05:00 AM 36.4064 127.1473 166° South  Level Estimated
Fri 04:06:00 AM 36.3016 127.1792 166° South  Level Estimated
Fri 04:07:00 AM 36.1968 127.2110 166° South  Level Estimated
Fri 04:08:00 AM 36.0920 127.2427 166° South  Level Estimated
Fri 04:09:00 AM 35.9872 127.2744 166° South  Level Estimated
Fri 04:10:00 AM 35.8824 127.3059 166° South  Level Estimated
Fri 04:11:00 AM 35.7776 127.3374 166° South  Level Estimated
Fri 04:12:00 AM 35.6728 127.3688 166° South  Level Estimated
Fri 04:13:00 AM 35.5680 127.4001 166° South  Level Estimated
Fri 04:14:00 AM 35.4631 127.4314 166° South  Level Estimated
Fri 04:15:00 AM 35.3583 127.4625 166° South  Level Estimated
Fri 04:16:00 AM 35.2534 127.4936 166° South  Level Estimated
Fri 04:17:00 AM 35.1486 127.5246 166° South  Level Estimated
Fri 04:18:00 AM 35.0437 127.5555 166° South  Level Estimated
Fri 04:19:00 AM 34.9388 127.5863 166° South  Level Estimated
Fri 04:20:00 AM 34.8398 127.6153 166° South  Level Estimated
Fri 04:21:00 AM 34.8398 127.6153 180° South  Level Estimated
Fri 04:22:00 AM 34.8398 127.6153 180° South  Level Estimated
Fri 04:23:00 AM 34.8398 127.6153 180° South  Level Estimated
Fri 04:24:00 AM 34.8398 127.6153 180° South  Level Estimated
Fri 04:25:00 AM 34.8398 127.6153 180° South  Level Estimated
Fri 04:26:00 AM 34.8398 127.6153 180° South  Level Estimated
Fri 04:27:00 AM 34.8398 127.6153 180° South  Level Estimated
Fri 04:28:00 AM 34.8398 127.6153 180° South  Level Estimated
Fri 04:29:00 AM 34.8398 127.6153 180° South  Level Estimated
Fri 04:30:00 AM 34.8398 127.6153 180° South  Level Estimated
Fri 04:31:00 AM 34.8398 127.6153 180° South  Level Estimated
Fri 04:32:00 AM 34.8398 127.6153 180° South  Level Estimated
Fri 04:33:00 AM 34.8398 127.6153 180° South  Level Estimated
Fri 04:34:00 AM 34.8398 127.6153 180° South  Level Estimated

Login

Don't have an account? Register now (free) for customized features, flight alerts, and more!